createdAt,value
2018-07-26T00:03:31.115Z,22.41
2018-07-26T00:07:34.947Z,22.42
2018-07-26T00:11:38.535Z,22.43
2018-07-26T00:15:42.046Z,22.40
2018-07-26T00:19:45.524Z,22.34
2018-07-26T00:23:49.015Z,22.31
2018-07-26T00:27:52.524Z,22.26
2018-07-26T00:31:56.015Z,22.23
2018-07-26T00:35:59.537Z,22.19
2018-07-26T00:40:03.043Z,22.17
2018-07-26T00:44:08.688Z,22.13
2018-07-26T00:48:13.331Z,22.12
2018-07-26T00:52:17.409Z,22.10
2018-07-26T00:56:21.489Z,22.09
2018-07-26T01:00:25.542Z,22.08
2018-07-26T01:04:29.591Z,22.07
2018-07-26T01:08:33.709Z,22.06
2018-07-26T01:12:37.810Z,22.04
2018-07-26T01:16:41.957Z,22.01
2018-07-26T01:20:52.483Z,22.00
2018-07-26T01:24:56.719Z,21.99
2018-07-26T01:29:00.826Z,21.98
2018-07-26T01:33:04.840Z,21.96
2018-07-26T01:37:08.931Z,21.91
2018-07-26T01:41:12.910Z,21.86
2018-07-26T01:45:17.105Z,21.85
2018-07-26T01:49:21.204Z,21.87
2018-07-26T01:53:27.175Z,21.88
2018-07-26T01:57:31.145Z,21.86
2018-07-26T02:01:35.229Z,21.80
2018-07-26T02:05:39.238Z,21.79
2018-07-26T02:09:43.366Z,21.78
2018-07-26T02:13:47.488Z,21.77
2018-07-26T02:17:51.517Z,21.74
2018-07-26T02:21:55.466Z,21.71
2018-07-26T02:25:59.503Z,21.69
2018-07-26T02:30:03.604Z,21.65
2018-07-26T02:34:07.753Z,21.63
2018-07-26T02:38:12.140Z,21.63
2018-07-26T02:42:16.252Z,21.62
2018-07-26T02:46:20.376Z,21.62
2018-07-26T02:50:24.621Z,21.63
2018-07-26T02:54:28.886Z,21.61
2018-07-26T02:58:32.909Z,21.61
2018-07-26T03:02:37.158Z,21.61
2018-07-26T03:06:41.305Z,21.60
2018-07-26T03:10:45.435Z,21.59
2018-07-26T03:14:49.600Z,21.62
2018-07-26T03:18:53.720Z,21.62
2018-07-26T03:22:57.693Z,21.63
2018-07-26T03:27:01.723Z,21.62
2018-07-26T03:31:06.118Z,21.61
2018-07-26T03:35:10.418Z,21.62
2018-07-26T03:39:14.545Z,21.63
2018-07-26T03:43:24.129Z,21.63
2018-07-26T03:47:28.244Z,21.62
2018-07-26T03:51:32.259Z,21.61
2018-07-26T03:55:36.340Z,21.62
2018-07-26T03:59:40.518Z,21.62
2018-07-26T04:03:45.730Z,21.59
2018-07-26T04:07:49.850Z,21.60
2018-07-26T04:11:53.902Z,21.60
2018-07-26T04:15:58.471Z,21.61
2018-07-26T04:20:03.513Z,21.61
2018-07-26T04:24:07.773Z,21.62
2018-07-26T04:28:11.741Z,21.68
2018-07-26T04:32:15.755Z,21.72
2018-07-26T04:36:19.787Z,21.73
2018-07-26T04:40:23.830Z,21.74
2018-07-26T04:44:27.895Z,21.74
2018-07-26T04:48:31.904Z,21.75
2018-07-26T04:52:36.042Z,21.76
2018-07-26T04:56:40.093Z,21.78
2018-07-26T05:00:44.175Z,21.83
2018-07-26T05:04:48.346Z,21.85
2018-07-26T05:08:53.030Z,21.93
2018-07-26T05:13:00.598Z,22.00
2018-07-26T05:17:04.699Z,22.12
2018-07-26T05:21:08.681Z,22.24
2018-07-26T05:25:12.749Z,22.41
2018-07-26T05:29:16.871Z,22.61
2018-07-26T05:33:20.866Z,22.80
2018-07-26T05:37:26.317Z,23.01
2018-07-26T05:41:30.735Z,23.20
2018-07-26T05:45:35.108Z,23.36
2018-07-26T05:49:39.581Z,23.58
2018-07-26T05:53:46.214Z,23.78
2018-07-26T05:57:52.091Z,23.96
2018-07-26T06:01:56.316Z,24.14
2018-07-26T06:06:00.721Z,24.27
2018-07-26T06:10:05.808Z,24.44
2018-07-26T06:14:10.475Z,24.67
2018-07-26T06:18:14.543Z,24.77
2018-07-26T06:22:19.568Z,24.84
2018-07-26T06:26:24.489Z,24.89
2018-07-26T06:30:28.651Z,24.82
2018-07-26T06:34:32.951Z,24.76
2018-07-26T06:38:37.432Z,24.73
2018-07-26T06:42:41.569Z,24.73
2018-07-26T06:46:45.659Z,24.81
2018-07-26T06:50:49.787Z,24.89
2018-07-26T06:54:54.070Z,24.97
2018-07-26T06:58:58.221Z,25.00
2018-07-26T07:03:02.347Z,25.00
2018-07-26T07:07:06.558Z,25.03
2018-07-26T07:11:10.606Z,25.05
2018-07-26T07:15:14.815Z,25.09
2018-07-26T07:19:18.886Z,25.21
2018-07-26T07:23:24.640Z,25.33
2018-07-26T07:27:29.046Z,25.54
2018-07-26T07:31:33.838Z,25.72
2018-07-26T07:35:38.249Z,25.84
2018-07-26T07:39:42.859Z,26.01
2018-07-26T07:43:47.750Z,26.19
2018-07-26T07:47:53.003Z,26.33
2018-07-26T07:51:57.545Z,26.57
2018-07-26T07:56:02.518Z,26.78
2018-07-26T08:00:19.401Z,26.96
2018-07-26T08:08:38.581Z,27.18
2018-07-26T08:17:38.959Z,27.36
2018-07-26T08:21:51.267Z,27.45
2018-07-26T08:25:54.785Z,27.59
2018-07-26T08:29:58.265Z,27.72
2018-07-26T08:34:01.743Z,27.93
2018-07-26T08:38:05.188Z,27.98
2018-07-26T08:42:08.663Z,28.09
2018-07-26T08:46:12.101Z,28.20
2018-07-26T08:50:15.573Z,28.35
2018-07-26T08:54:19.093Z,28.42
2018-07-26T08:58:22.572Z,28.57
2018-07-26T09:02:25.971Z,28.64
2018-07-26T09:06:29.403Z,28.79
2018-07-26T09:10:32.917Z,28.90
2018-07-26T09:14:36.316Z,28.94
2018-07-26T09:18:39.814Z,29.07
2018-07-26T09:22:43.262Z,29.10
2018-07-26T09:26:46.728Z,29.08
2018-07-26T09:30:50.198Z,29.11
2018-07-26T09:34:53.592Z,29.14
2018-07-26T09:38:57.065Z,29.22
2018-07-26T09:43:00.509Z,29.26
2018-07-26T09:47:04.008Z,29.42
2018-07-26T09:51:07.493Z,29.47
2018-07-26T09:55:10.968Z,29.46
2018-07-26T09:59:14.478Z,29.44
2018-07-26T10:03:17.935Z,29.51
2018-07-26T10:07:21.640Z,29.61
2018-07-26T10:11:26.062Z,29.58
2018-07-26T10:15:29.530Z,29.63
2018-07-26T10:19:32.973Z,29.68
2018-07-26T10:23:37.434Z,29.75
2018-07-26T10:27:40.875Z,29.92
2018-07-26T10:31:44.321Z,29.88
2018-07-26T10:35:47.779Z,29.96
2018-07-26T10:39:51.185Z,30.02
2018-07-26T10:43:54.684Z,29.99
2018-07-26T10:47:58.138Z,30.00
2018-07-26T10:52:01.657Z,30.17
2018-07-26T10:56:05.530Z,30.36
2018-07-26T11:00:10.059Z,30.46
2018-07-26T11:04:13.497Z,30.48
2018-07-26T11:08:16.986Z,30.59
2018-07-26T11:12:20.551Z,30.66
2018-07-26T11:16:23.973Z,30.68
2018-07-26T11:20:27.427Z,30.74
2018-07-26T11:24:30.921Z,30.96
2018-07-26T11:28:34.473Z,31.09
2018-07-26T11:32:38.063Z,31.19
2018-07-26T11:36:41.606Z,31.19
2018-07-26T11:40:45.137Z,31.15
2018-07-26T11:44:48.728Z,31.21
2018-07-26T11:48:52.298Z,31.20
2018-07-26T11:52:55.769Z,31.19
2018-07-26T11:56:59.401Z,31.28
2018-07-26T12:01:03.098Z,31.40
2018-07-26T12:05:06.951Z,31.52
2018-07-26T12:09:11.302Z,31.44
2018-07-26T12:13:14.930Z,31.45
2018-07-26T12:17:18.495Z,31.39
2018-07-26T12:21:22.225Z,31.44
2018-07-26T12:25:25.753Z,31.50
2018-07-26T12:29:29.417Z,31.53
2018-07-26T12:33:33.012Z,31.65
2018-07-26T12:37:36.489Z,31.50
2018-07-26T12:41:40.106Z,31.50
2018-07-26T12:45:43.620Z,31.45
2018-07-26T12:49:47.481Z,31.50
2018-07-26T12:53:51.091Z,31.62
2018-07-26T12:57:55.300Z,31.70
2018-07-26T13:01:58.763Z,31.67
2018-07-26T13:06:02.321Z,31.66
2018-07-26T13:10:06.189Z,31.47
2018-07-26T13:14:10.924Z,31.28
2018-07-26T13:18:14.653Z,31.10
2018-07-26T13:22:18.354Z,31.00
2018-07-26T13:26:22.050Z,30.85
2018-07-26T13:30:25.700Z,30.75
2018-07-26T13:34:29.392Z,30.68
2018-07-26T13:38:33.293Z,30.65
2018-07-26T13:42:36.978Z,30.72
2018-07-26T13:46:40.668Z,30.82
2018-07-26T13:50:44.389Z,30.97
2018-07-26T13:54:48.166Z,31.10
2018-07-26T13:58:51.842Z,31.28
2018-07-26T14:02:55.537Z,31.35
2018-07-26T14:06:59.290Z,31.35
2018-07-26T14:11:03.008Z,31.31
2018-07-26T14:15:07.956Z,31.16
2018-07-26T14:19:12.135Z,30.97
2018-07-26T14:23:21.094Z,30.78
2018-07-26T14:27:24.562Z,30.40
2018-07-26T14:31:28.029Z,30.14
2018-07-26T14:35:31.450Z,29.97
2018-07-26T14:39:34.903Z,29.67
2018-07-26T14:43:38.387Z,29.43
2018-07-26T14:47:41.858Z,29.34
2018-07-26T14:51:45.309Z,29.24
2018-07-26T14:55:48.755Z,29.18
2018-07-26T14:59:52.236Z,29.14
2018-07-26T15:03:55.711Z,29.10
2018-07-26T15:07:59.220Z,29.08
2018-07-26T15:12:02.607Z,29.09
2018-07-26T15:16:06.099Z,29.11
2018-07-26T15:20:09.552Z,29.15
2018-07-26T15:24:13.067Z,29.26
2018-07-26T15:28:16.512Z,29.37
2018-07-26T15:32:20.016Z,29.46
2018-07-26T15:36:23.456Z,29.51
2018-07-26T15:40:26.947Z,29.58
2018-07-26T15:44:30.420Z,29.56
2018-07-26T15:48:33.911Z,29.57
2018-07-26T15:52:37.373Z,29.53
2018-07-26T15:56:40.807Z,29.34
2018-07-26T16:00:44.259Z,29.10
2018-07-26T16:04:47.719Z,28.92
2018-07-26T16:08:51.231Z,28.80
2018-07-26T16:12:54.699Z,28.68
2018-07-26T16:16:58.145Z,28.43
2018-07-26T16:21:01.600Z,28.30
2018-07-26T16:25:06.624Z,28.20
2018-07-26T16:29:10.094Z,28.04
2018-07-26T16:33:13.610Z,27.83
2018-07-26T16:37:17.029Z,27.52
2018-07-26T16:41:20.536Z,27.26
2018-07-26T16:45:24.139Z,27.03
2018-07-26T16:49:27.510Z,26.83
2018-07-26T16:53:31.989Z,26.65
2018-07-26T16:57:35.556Z,26.49
2018-07-26T17:01:39.047Z,26.37
2018-07-26T17:05:42.525Z,26.25
2018-07-26T17:09:46.034Z,26.16
2018-07-26T17:13:49.493Z,26.08
2018-07-26T17:17:52.978Z,25.98
2018-07-26T17:21:56.458Z,25.88
2018-07-26T17:26:00.059Z,25.81
2018-07-26T17:30:03.631Z,25.73
2018-07-26T17:34:07.074Z,25.69
2018-07-26T17:38:10.551Z,25.64
2018-07-26T17:42:14.079Z,25.56
2018-07-26T17:46:17.559Z,25.52
2018-07-26T17:50:21.043Z,25.47
2018-07-26T17:54:24.488Z,25.40
2018-07-26T17:58:27.963Z,25.35
2018-07-26T18:02:31.517Z,25.33
2018-07-26T18:06:34.955Z,25.31
2018-07-26T18:10:38.917Z,25.30
2018-07-26T18:14:42.422Z,25.27
2018-07-26T18:18:45.932Z,25.23
2018-07-26T18:22:49.439Z,25.18
2018-07-26T18:26:52.931Z,25.13
2018-07-26T18:30:56.577Z,25.08
2018-07-26T18:35:00.232Z,25.06
2018-07-26T18:39:04.861Z,25.03
2018-07-26T18:43:08.393Z,25.01
2018-07-26T18:47:11.857Z,25.00
2018-07-26T18:51:15.410Z,24.99
2018-07-26T18:55:19.142Z,24.96
2018-07-26T18:59:22.935Z,24.92
2018-07-26T19:03:26.742Z,24.89
2018-07-26T19:07:30.493Z,24.85
2018-07-26T19:11:35.594Z,24.82
2018-07-26T19:15:39.195Z,24.79
2018-07-26T19:19:42.746Z,24.75
2018-07-26T19:23:46.394Z,24.76
2018-07-26T19:27:50.162Z,24.75
2018-07-26T19:31:53.727Z,24.76
2018-07-26T19:35:57.282Z,24.76
2018-07-26T19:40:00.835Z,24.73
2018-07-26T19:44:04.374Z,24.72
2018-07-26T19:48:08.042Z,24.70
2018-07-26T19:52:11.522Z,24.65
2018-07-26T19:56:15.271Z,24.63
2018-07-26T20:00:18.722Z,24.60
2018-07-26T20:04:22.266Z,24.58
2018-07-26T20:08:25.995Z,24.54
2018-07-26T20:12:29.808Z,24.53
2018-07-26T20:16:33.453Z,24.50
2018-07-26T20:20:37.014Z,24.47
2018-07-26T20:24:40.540Z,24.43
2018-07-26T20:28:44.039Z,24.39
2018-07-26T20:32:47.573Z,24.35
2018-07-26T20:36:51.041Z,24.28
2018-07-26T20:40:54.511Z,24.25
2018-07-26T20:44:57.971Z,24.21
2018-07-26T20:49:01.428Z,24.16
2018-07-26T20:53:04.967Z,24.10
2018-07-26T20:57:08.474Z,24.05
2018-07-26T21:01:11.940Z,24.01
2018-07-26T21:05:15.508Z,23.98
2018-07-26T21:09:18.953Z,23.93
2018-07-26T21:13:22.425Z,23.89
2018-07-26T21:17:26.017Z,23.84
2018-07-26T21:21:29.543Z,23.79
2018-07-26T21:25:33.068Z,23.77
2018-07-26T21:29:36.509Z,23.75
2018-07-26T21:33:39.982Z,23.72
2018-07-26T21:37:43.455Z,23.71
2018-07-26T21:41:46.981Z,23.68
2018-07-26T21:45:50.453Z,23.65
2018-07-26T21:49:53.916Z,23.65
2018-07-26T21:53:57.367Z,23.66
2018-07-26T21:58:00.898Z,23.65
2018-07-26T22:02:05.046Z,23.64
2018-07-26T22:06:08.547Z,23.64
2018-07-26T22:10:12.048Z,23.62
2018-07-26T22:14:15.491Z,23.63
2018-07-26T22:18:19.002Z,23.63
2018-07-26T22:22:22.543Z,23.60
2018-07-26T22:26:26.019Z,23.57
2018-07-26T22:30:29.457Z,23.54
2018-07-26T22:34:32.967Z,23.54
2018-07-26T22:38:43.446Z,23.55
2018-07-26T22:42:48.912Z,23.55
2018-07-26T22:47:10.797Z,23.55
2018-07-26T22:51:20.809Z,23.54
2018-07-26T22:55:27.061Z,23.54
2018-07-26T22:59:32.121Z,23.54
2018-07-26T23:03:39.331Z,23.56
2018-07-26T23:07:44.420Z,23.54
2018-07-26T23:11:49.200Z,23.53
2018-07-26T23:15:53.595Z,23.55
2018-07-26T23:19:59.459Z,23.55
2018-07-26T23:24:05.538Z,23.55
2018-07-26T23:28:12.237Z,23.55
2018-07-26T23:32:17.238Z,23.55
2018-07-26T23:36:21.751Z,23.53
2018-07-26T23:40:30.799Z,23.52
2018-07-26T23:44:34.262Z,23.52
2018-07-26T23:48:37.815Z,23.52
2018-07-26T23:52:41.247Z,23.51
2018-07-26T23:56:44.720Z,23.50
